De Queen, AR

3:07 AM CST en Diciembre 22, 2014 (GMT -0600)
Jones Ridge | Change Station
CLOSE
Current Station
Estación meteorológica personal
Location: De Queen, AR
Altura: 502 ft
Estaciones meteorológicas cercanas

Alt 502 ft 34.07 °N, 94.32 °W | Updated 3 seconds ago

Nublado
Nublado
49.1 ° F
Sensación térmica 48 ° F
N
3.8
Viento Variable Viento desde Este
Gusts 3.8 mph

Hoy
Alta -- | Baja -- ° F
--% Posibilidad de precipitaciones
Ayer
Alta -- | Baja -- ° F
Precip. -- pul
7:19 AM 5:12 PM
Luna nueva, 0% visible
Presión 29.72 pul
Visibilidad 8.0 Millas
Nubes Nublado 2200 ft
Vientos helados 48 ° F
Punto de rocío 48 ° F
Humedad 96%
Precipitaciones 0.00 pul
Espesor de la nieve No disponible.
UV 0 de una escala de 12
Polen 6.40 de una escala de 12
Calidad del aire No disponible.
Flu Activity No disponible.
METAR KDEQ 220853Z AUTO 14007KT 8SM OVC022 10/08 A2972 RMK AO2 SLP063 T01000083 56033 $

More Conditions Fewer Conditions

Presión 29.72 pul
Visibilidad 8.0 Millas
Nubes Nublado 2200 ft
Vientos helados 48 ° F
Punto de rocío 48 ° F
Humedad 96%
Precipitaciones 0.00 pul
Espesor de la nieve No disponible.
UV 0 de una escala de 12
Polen 6.40 de una escala de 12
Calidad del aire No disponible.
Flu Activity No disponible.
METAR KDEQ 220853Z AUTO 14007KT 8SM OVC022 10/08 A2972 RMK AO2 SLP063 T01000083 56033 $

More Conditions Fewer Conditions

10-Day Weather Forecast

Almanac

Astronomía

Dec. 22, 2014 Salida Puesta
Hora real
Crepúsculo civil
Crepúsculo náutico
Crepúsculo astronómico
Luna
Horas de luz
Horas de luz
Tomorrow will be .
, % of the Moon is Illuminated

Extremos de hoy

Máximos del estado Bajos del estado

Community

WunderPhotos

Upload Photos

1,779,580 ¡fotos cargadas!

WunderBlogs® & News

Nearby

Calidad del aire

  Calidad del aire Índice AQ Contaminante
Not available.

Grosos de nieve

Estación Profundido Altura

Actividad de terremotos

Ciudad Distance Mag. Tiempo y dato
Magnitud mínima muestra es 2,5.

Temperaturas de aguas costeras

Lugar Temperatura

Estaciones meteorológicas cercanas